sensor_id;sensor_type;location;lat;lon;timestamp;pressure;altitude;pressure_sealevel;temperature;humidity
39209;BME280;24929;51.982;4.664;2022-07-29T00:01:46;76214.66;;;-143.36;nan
39209;BME280;24929;51.982;4.664;2022-07-29T00:04:12;76260.81;;;-143.36;nan
39209;BME280;24929;51.982;4.664;2022-07-29T00:06:37;76230.69;;;-143.36;nan
39209;BME280;24929;51.982;4.664;2022-07-29T00:09:03;76270.84;;;-143.36;nan
39209;BME280;24929;51.982;4.664;2022-07-29T00:11:28;76270.84;;;-143.36;nan
39209;BME280;24929;51.982;4.664;2022-07-29T00:13:53;76310.97;;;-143.36;nan
39209;BME280;24929;51.982;4.664;2022-07-29T00:16:19;76290.91;;;-143.36;nan
39209;BME280;24929;51.982;4.664;2022-07-29T00:18:44;76300.94;;;-143.36;nan
39209;BME280;24929;51.982;4.664;2022-07-29T00:21:10;76284.88;;;-143.36;nan
39209;BME280;24929;51.982;4.664;2022-07-29T00:23:35;76341.06;;;-143.36;nan
39209;BME280;24929;51.982;4.664;2022-07-29T00:26:00;76260.81;;;-143.36;nan
39209;BME280;24929;51.982;4.664;2022-07-29T00:28:26;76200.59;;;-143.36;nan
39209;BME280;24929;51.982;4.664;2022-07-29T00:30:51;76234.72;;;-143.36;nan
39209;BME280;24929;51.982;4.664;2022-07-29T00:33:16;76210.63;;;-143.36;nan
39209;BME280;24929;51.982;4.664;2022-07-29T00:35:42;76194.59;;;-143.36;nan
39209;BME280;24929;51.982;4.664;2022-07-29T00:38:15;76166.50;;;-143.36;nan
39209;BME280;24929;51.982;4.664;2022-07-29T00:40:41;76172.50;;;-143.36;nan
39209;BME280;24929;51.982;4.664;2022-07-29T00:43:06;76310.97;;;-143.36;nan
39209;BME280;24929;51.982;4.664;2022-07-29T00:45:32;76308.97;;;-143.36;nan
39209;BME280;24929;51.982;4.664;2022-07-29T00:47:58;76278.84;;;-143.36;nan
39209;BME280;24929;51.982;4.664;2022-07-29T00:50:23;76276.84;;;-143.36;nan
39209;BME280;24929;51.982;4.664;2022-07-29T00:52:50;76268.81;;;-143.36;nan
39209;BME280;24929;51.982;4.664;2022-07-29T00:55:16;76300.94;;;-143.36;nan
39209;BME280;24929;51.982;4.664;2022-07-29T00:57:42;76288.91;;;-143.36;nan
39209;BME280;24929;51.982;4.664;2022-07-29T01:00:15;76256.78;;;-143.36;nan
39209;BME280;24929;51.982;4.664;2022-07-29T01:02:42;76300.94;;;-143.36;nan
39209;BME280;24929;51.982;4.664;2022-07-29T01:05:08;76284.88;;;-143.36;nan
39209;BME280;24929;51.982;4.664;2022-07-29T01:07:35;76260.81;;;-143.36;nan
39209;BME280;24929;51.982;4.664;2022-07-29T01:10:03;76254.78;;;-143.36;nan
39209;BME280;24929;51.982;4.664;2022-07-29T01:12:30;76282.88;;;-143.36;nan
39209;BME280;24929;51.982;4.664;2022-07-29T01:15:00;76280.88;;;-143.36;nan
39209;BME280;24929;51.982;4.664;2022-07-29T01:17:29;76278.84;;;-143.36;nan
39209;BME280;24929;51.982;4.664;2022-07-29T01:25:12;76284.88;;;-143.36;nan
39209;BME280;24929;51.982;4.664;2022-07-29T01:30:36;76268.81;;;-143.36;nan
39209;BME280;24929;51.982;4.664;2022-07-29T01:33:07;76294.91;;;-143.36;nan
39209;BME280;24929;51.982;4.664;2022-07-29T01:35:39;76280.88;;;-143.36;nan
39209;BME280;24929;51.982;4.664;2022-07-29T01:38:21;76260.81;;;-143.36;nan
39209;BME280;24929;51.982;4.664;2022-07-29T01:40:59;76264.81;;;-143.36;nan
39209;BME280;24929;51.982;4.664;2022-07-29T01:43:37;76260.81;;;-143.36;nan
39209;BME280;24929;51.982;4.664;2022-07-29T01:46:08;76300.94;;;-143.36;nan
39209;BME280;24929;51.982;4.664;2022-07-29T01:48:45;76292.91;;;-143.36;nan
39209;BME280;24929;51.982;4.664;2022-07-29T01:51:19;76327.03;;;-143.36;nan
39209;BME280;24929;51.982;4.664;2022-07-29T01:54:08;76252.78;;;-143.36;nan
39209;BME280;24929;51.982;4.664;2022-07-29T01:56:37;76296.91;;;-143.36;nan
39209;BME280;24929;51.982;4.664;2022-07-29T01:59:05;76323.00;;;-143.36;nan
39209;BME280;24929;51.982;4.664;2022-07-29T02:01:33;76310.97;;;-143.36;nan
39209;BME280;24929;51.982;4.664;2022-07-29T02:04:03;76290.91;;;-143.36;nan
39209;BME280;24929;51.982;4.664;2022-07-29T02:06:32;76310.97;;;-143.36;nan
39209;BME280;24929;51.982;4.664;2022-07-29T02:08:58;76343.06;;;-143.36;nan
39209;BME280;24929;51.982;4.664;2022-07-29T02:11:24;76304.94;;;-143.36;nan
39209;BME280;24929;51.982;4.664;2022-07-29T02:13:52;76284.88;;;-143.36;nan
39209;BME280;24929;51.982;4.664;2022-07-29T02:16:21;76288.91;;;-143.36;nan
39209;BME280;24929;51.982;4.664;2022-07-29T02:18:48;76296.91;;;-143.36;nan
39209;BME280;24929;51.982;4.664;2022-07-29T02:21:18;76298.94;;;-143.36;nan
39209;BME280;24929;51.982;4.664;2022-07-29T02:23:45;76292.91;;;-143.36;nan
39209;BME280;24929;51.982;4.664;2022-07-29T02:26:11;76317.00;;;-143.36;nan
39209;BME280;24929;51.982;4.664;2022-07-29T02:28:38;76252.78;;;-143.36;nan
39209;BME280;24929;51.982;4.664;2022-07-29T02:31:05;76298.94;;;-143.36;nan
39209;BME280;24929;51.982;4.664;2022-07-29T02:33:32;76300.94;;;-143.36;nan
39209;BME280;24929;51.982;4.664;2022-07-29T02:35:58;76286.88;;;-143.36;nan
39209;BME280;24929;51.982;4.664;2022-07-29T02:38:24;76319.00;;;-143.36;nan
39209;BME280;24929;51.982;4.664;2022-07-29T02:41:48;76260.81;;;-143.36;nan
39209;BME280;24929;51.982;4.664;2022-07-29T02:44:17;76278.84;;;-143.36;nan
39209;BME280;24929;51.982;4.664;2022-07-29T02:46:49;76266.81;;;-143.36;nan
39209;BME280;24929;51.982;4.664;2022-07-29T02:49:28;76250.78;;;-143.36;nan
39209;BME280;24929;51.982;4.664;2022-07-29T02:52:02;76280.88;;;-143.36;nan
39209;BME280;24929;51.982;4.664;2022-07-29T02:54:50;76254.78;;;-143.36;nan
39209;BME280;24929;51.982;4.664;2022-07-29T02:57:29;76292.91;;;-143.36;nan
39209;BME280;24929;51.982;4.664;2022-07-29T02:59:57;76288.91;;;-143.36;nan
39209;BME280;24929;51.982;4.664;2022-07-29T03:02:25;76327.03;;;-143.36;nan
39209;BME280;24929;51.982;4.664;2022-07-29T03:04:52;76341.06;;;-143.36;nan
39209;BME280;24929;51.982;4.664;2022-07-29T03:07:20;76353.09;;;-143.36;nan
39209;BME280;24929;51.982;4.664;2022-07-29T03:09:46;76351.09;;;-143.36;nan
39209;BME280;24929;51.982;4.664;2022-07-29T03:12:12;76385.22;;;-143.36;nan
39209;BME280;24929;51.982;4.664;2022-07-29T03:14:38;76355.13;;;-143.36;nan
39209;BME280;24929;51.982;4.664;2022-07-29T03:17:04;76393.25;;;-143.36;nan
39209;BME280;24929;51.982;4.664;2022-07-29T03:19:30;76347.09;;;-143.36;nan
39209;BME280;24929;51.982;4.664;2022-07-29T03:21:57;76323.00;;;-143.36;nan
39209;BME280;24929;51.982;4.664;2022-07-29T03:26:51;76373.16;;;-143.36;nan
39209;BME280;24929;51.982;4.664;2022-07-29T03:29:17;76345.06;;;-143.36;nan
39209;BME280;24929;51.982;4.664;2022-07-29T03:31:42;76347.09;;;-143.36;nan
39209;BME280;24929;51.982;4.664;2022-07-29T03:34:07;76377.19;;;-143.36;nan
39209;BME280;24929;51.982;4.664;2022-07-29T03:36:33;76415.31;;;-143.36;nan
39209;BME280;24929;51.982;4.664;2022-07-29T03:38:59;76341.06;;;-143.36;nan
39209;BME280;24929;51.982;4.664;2022-07-29T03:41:25;76351.09;;;-143.36;nan
39209;BME280;24929;51.982;4.664;2022-07-29T03:43:51;76325.00;;;-143.36;nan
39209;BME280;24929;51.982;4.664;2022-07-29T03:46:20;76310.97;;;-143.36;nan
39209;BME280;24929;51.982;4.664;2022-07-29T03:48:50;76325.00;;;-143.36;nan
39209;BME280;24929;51.982;4.664;2022-07-29T03:51:17;76347.09;;;-143.36;nan
39209;BME280;24929;51.982;4.664;2022-07-29T03:53:43;76379.19;;;-143.36;nan
39209;BME280;24929;51.982;4.664;2022-07-29T03:56:09;76327.03;;;-143.36;nan
39209;BME280;24929;51.982;4.664;2022-07-29T03:58:35;76383.22;;;-143.36;nan
39209;BME280;24929;51.982;4.664;2022-07-29T04:01:02;76377.19;;;-143.36;nan
39209;BME280;24929;51.982;4.664;2022-07-29T04:03:27;76357.13;;;-143.36;nan
39209;BME280;24929;51.982;4.664;2022-07-29T04:06:04;76310.97;;;-143.36;nan
39209;BME280;24929;51.982;4.664;2022-07-29T04:08:33;76349.09;;;-143.36;nan
39209;BME280;24929;51.982;4.664;2022-07-29T04:11:00;76367.16;;;-143.36;nan
39209;BME280;24929;51.982;4.664;2022-07-29T04:13:26;76365.16;;;-143.36;nan
39209;BME280;24929;51.982;4.664;2022-07-29T04:15:51;76361.13;;;-143.36;nan
39209;BME280;24929;51.982;4.664;2022-07-29T04:18:16;76361.13;;;-143.36;nan
39209;BME280;24929;51.982;4.664;2022-07-29T04:20:42;76353.09;;;-143.36;nan
39209;BME280;24929;51.982;4.664;2022-07-29T04:23:07;76373.16;;;-143.36;nan
39209;BME280;24929;51.982;4.664;2022-07-29T04:25:32;76351.09;;;-143.36;nan
39209;BME280;24929;51.982;4.664;2022-07-29T04:27:58;76349.09;;;-143.36;nan
39209;BME280;24929;51.982;4.664;2022-07-29T04:30:26;76333.03;;;-143.36;nan
39209;BME280;24929;51.982;4.664;2022-07-29T04:32:51;76335.03;;;-143.36;nan
39209;BME280;24929;51.982;4.664;2022-07-29T04:35:18;76337.06;;;-143.36;nan
39209;BME280;24929;51.982;4.664;2022-07-29T04:37:43;76337.06;;;-143.36;nan
39209;BME280;24929;51.982;4.664;2022-07-29T04:40:09;76351.09;;;-143.36;nan
39209;BME280;24929;51.982;4.664;2022-07-29T04:42:34;76343.06;;;-143.36;nan
39209;BME280;24929;51.982;4.664;2022-07-29T04:45:00;76331.03;;;-143.36;nan
39209;BME280;24929;51.982;4.664;2022-07-29T04:47:25;76343.06;;;-143.36;nan
39209;BME280;24929;51.982;4.664;2022-07-29T04:49:50;76339.06;;;-143.36;nan
39209;BME280;24929;51.982;4.664;2022-07-29T04:52:16;76351.09;;;-143.36;nan
39209;BME280;24929;51.982;4.664;2022-07-29T04:54:41;76373.16;;;-143.36;nan
39209;BME280;24929;51.982;4.664;2022-07-29T04:57:06;76347.09;;;-143.36;nan
39209;BME280;24929;51.982;4.664;2022-07-29T04:59:32;76343.06;;;-143.36;nan
39209;BME280;24929;51.982;4.664;2022-07-29T05:01:57;76341.06;;;-143.36;nan
39209;BME280;24929;51.982;4.664;2022-07-29T05:04:22;76343.06;;;-143.36;nan
39209;BME280;24929;51.982;4.664;2022-07-29T05:06:48;76347.09;;;-143.36;nan
39209;BME280;24929;51.982;4.664;2022-07-29T05:09:13;76333.03;;;-143.36;nan
39209;BME280;24929;51.982;4.664;2022-07-29T05:11:38;76359.13;;;-143.36;nan
39209;BME280;24929;51.982;4.664;2022-07-29T05:14:04;76361.13;;;-143.36;nan
39209;BME280;24929;51.982;4.664;2022-07-29T05:16:30;76345.06;;;-143.36;nan
39209;BME280;24929;51.982;4.664;2022-07-29T05:18:55;76357.13;;;-143.36;nan
39209;BME280;24929;51.982;4.664;2022-07-29T05:21:20;76345.06;;;-143.36;nan
39209;BME280;24929;51.982;4.664;2022-07-29T05:23:46;76339.06;;;-143.36;nan
39209;BME280;24929;51.982;4.664;2022-07-29T05:26:11;76335.03;;;-143.36;nan
39209;BME280;24929;51.982;4.664;2022-07-29T05:28:37;76349.09;;;-143.36;nan
39209;BME280;24929;51.982;4.664;2022-07-29T05:31:03;76312.97;;;-143.36;nan
39209;BME280;24929;51.982;4.664;2022-07-29T05:33:28;76317.00;;;-143.36;nan
39209;BME280;24929;51.982;4.664;2022-07-29T05:35:53;76314.97;;;-143.36;nan
39209;BME280;24929;51.982;4.664;2022-07-29T05:38:19;76272.84;;;-143.36;nan
39209;BME280;24929;51.982;4.664;2022-07-29T05:40:44;76230.69;;;-143.36;nan
39209;BME280;24929;51.982;4.664;2022-07-29T05:43:09;76228.69;;;-143.36;nan
39209;BME280;24929;51.982;4.664;2022-07-29T05:45:35;76224.69;;;-143.36;nan
39209;BME280;24929;51.982;4.664;2022-07-29T05:48:00;76248.75;;;-143.36;nan
39209;BME280;24929;51.982;4.664;2022-07-29T05:50:25;76206.63;;;-143.36;nan
39209;BME280;24929;51.982;4.664;2022-07-29T05:52:51;76182.53;;;-143.36;nan
39209;BME280;24929;51.982;4.664;2022-07-29T05:55:17;76164.50;;;-143.36;nan
39209;BME280;24929;51.982;4.664;2022-07-29T05:57:42;76198.59;;;-143.36;nan
39209;BME280;24929;51.982;4.664;2022-07-29T06:00:10;76156.47;;;-143.36;nan
39209;BME280;24929;51.982;4.664;2022-07-29T06:02:35;76140.41;;;-143.36;nan
39209;BME280;24929;51.982;4.664;2022-07-29T06:05:01;76128.38;;;-143.36;nan
39209;BME280;24929;51.982;4.664;2022-07-29T06:07:26;76138.41;;;-143.36;nan
39209;BME280;24929;51.982;4.664;2022-07-29T06:09:51;76132.38;;;-143.36;nan
39209;BME280;24929;51.982;4.664;2022-07-29T06:12:17;76102.28;;;-143.36;nan
39209;BME280;24929;51.982;4.664;2022-07-29T06:14:42;76108.31;;;-143.36;nan
39209;BME280;24929;51.982;4.664;2022-07-29T06:17:07;76102.28;;;-143.36;nan
39209;BME280;24929;51.982;4.664;2022-07-29T06:19:36;76054.13;;;-143.36;nan
39209;BME280;24929;51.982;4.664;2022-07-29T06:22:02;76112.31;;;-143.36;nan
39209;BME280;24929;51.982;4.664;2022-07-29T06:24:27;76122.34;;;-143.36;nan
39209;BME280;24929;51.982;4.664;2022-07-29T06:26:53;76100.28;;;-143.36;nan
39209;BME280;24929;51.982;4.664;2022-07-29T06:29:18;76106.28;;;-143.36;nan
39209;BME280;24929;51.982;4.664;2022-07-29T06:31:43;76100.28;;;-143.36;nan
39209;BME280;24929;51.982;4.664;2022-07-29T06:34:09;76092.25;;;-143.36;nan
39209;BME280;24929;51.982;4.664;2022-07-29T06:36:35;76056.13;;;-143.36;nan
39209;BME280;24929;51.982;4.664;2022-07-29T06:39:04;76068.19;;;-143.36;nan
39209;BME280;24929;51.982;4.664;2022-07-29T06:41:29;76086.22;;;-143.36;nan
39209;BME280;24929;51.982;4.664;2022-07-29T06:43:54;76060.16;;;-143.36;nan
39209;BME280;24929;51.982;4.664;2022-07-29T06:46:21;76042.09;;;-143.36;nan
39209;BME280;24929;51.982;4.664;2022-07-29T06:48:47;76070.19;;;-143.36;nan
39209;BME280;24929;51.982;4.664;2022-07-29T06:51:13;76040.09;;;-143.36;nan
39209;BME280;24929;51.982;4.664;2022-07-29T06:53:38;76034.06;;;-143.36;nan
39209;BME280;24929;51.982;4.664;2022-07-29T06:56:05;76022.03;;;-143.36;nan
39209;BME280;24929;51.982;4.664;2022-07-29T06:58:33;76066.16;;;-143.36;nan
39209;BME280;24929;51.982;4.664;2022-07-29T07:01:02;76068.19;;;-143.36;nan
39209;BME280;24929;51.982;4.664;2022-07-29T07:03:28;76096.25;;;-143.36;nan
39209;BME280;24929;51.982;4.664;2022-07-29T07:05:54;76074.19;;;-143.36;nan
39209;BME280;24929;51.982;4.664;2022-07-29T07:08:20;76030.06;;;-143.36;nan
39209;BME280;24929;51.982;4.664;2022-07-29T07:10:47;76007.97;;;-143.36;nan
39209;BME280;24929;51.982;4.664;2022-07-29T07:13:12;75987.91;;;-143.36;nan
39209;BME280;24929;51.982;4.664;2022-07-29T07:15:38;75985.91;;;-143.36;nan
39209;BME280;24929;51.982;4.664;2022-07-29T07:18:04;75979.88;;;-143.36;nan
39209;BME280;24929;51.982;4.664;2022-07-29T07:20:31;75977.88;;;-143.36;nan
39209;BME280;24929;51.982;4.664;2022-07-29T07:22:56;75973.88;;;-143.36;nan
39209;BME280;24929;51.982;4.664;2022-07-29T07:25:22;75947.78;;;-143.36;nan
39209;BME280;24929;51.982;4.664;2022-07-29T07:27:47;75953.81;;;-143.36;nan
39209;BME280;24929;51.982;4.664;2022-07-29T07:30:13;75965.84;;;-143.36;nan
39209;BME280;24929;51.982;4.664;2022-07-29T07:32:38;75971.88;;;-143.36;nan
39209;BME280;24929;51.982;4.664;2022-07-29T07:35:06;75919.69;;;-143.36;nan
39209;BME280;24929;51.982;4.664;2022-07-29T07:37:32;75915.69;;;-143.36;nan
39209;BME280;24929;51.982;4.664;2022-07-29T07:39:57;75945.78;;;-143.36;nan
39209;BME280;24929;51.982;4.664;2022-07-29T07:42:23;75915.69;;;-143.36;nan
39209;BME280;24929;51.982;4.664;2022-07-29T07:44:49;75903.66;;;-143.36;nan
39209;BME280;24929;51.982;4.664;2022-07-29T07:47:15;75891.59;;;-143.36;nan
39209;BME280;24929;51.982;4.664;2022-07-29T07:49:48;75855.50;;;-143.36;nan
39209;BME280;24929;51.982;4.664;2022-07-29T07:52:15;75865.53;;;-143.36;nan
39209;BME280;24929;51.982;4.664;2022-07-29T07:54:40;75851.47;;;-143.36;nan
39209;BME280;24929;51.982;4.664;2022-07-29T07:57:05;75847.47;;;-143.36;nan
39209;BME280;24929;51.982;4.664;2022-07-29T07:59:31;75879.56;;;-143.36;nan
39209;BME280;24929;51.982;4.664;2022-07-29T08:01:57;75875.56;;;-143.36;nan
39209;BME280;24929;51.982;4.664;2022-07-29T08:04:22;75845.47;;;-143.36;nan
39209;BME280;24929;51.982;4.664;2022-07-29T08:06:48;75885.59;;;-143.36;nan
39209;BME280;24929;51.982;4.664;2022-07-29T08:09:15;75891.59;;;-143.36;nan
39209;BME280;24929;51.982;4.664;2022-07-29T08:11:40;75861.50;;;-143.36;nan
39209;BME280;24929;51.982;4.664;2022-07-29T08:14:05;75843.44;;;-143.36;nan
39209;BME280;24929;51.982;4.664;2022-07-29T08:16:31;75817.38;;;-143.36;nan
39209;BME280;24929;51.982;4.664;2022-07-29T08:18:56;75799.31;;;-143.36;nan
39209;BME280;24929;51.982;4.664;2022-07-29T08:21:22;75701.00;;;-143.36;nan
39209;BME280;24929;51.982;4.664;2022-07-29T08:23:48;75678.94;;;-143.36;nan
39209;BME280;24929;51.982;4.664;2022-07-29T08:26:14;75630.78;;;-143.36;nan
39209;BME280;24929;51.982;4.664;2022-07-29T08:28:42;75582.63;;;-143.36;nan
39209;BME280;24929;51.982;4.664;2022-07-29T08:31:11;75558.56;;;-143.36;nan
39209;BME280;24929;51.982;4.664;2022-07-29T08:33:37;75508.41;;;-143.36;nan
39209;BME280;24929;51.982;4.664;2022-07-29T08:36:03;75478.31;;;-143.36;nan
39209;BME280;24929;51.982;4.664;2022-07-29T08:38:28;75508.41;;;-143.36;nan
39209;BME280;24929;51.982;4.664;2022-07-29T08:40:54;75470.28;;;-143.36;nan
39209;BME280;24929;51.982;4.664;2022-07-29T08:43:19;75398.06;;;-143.36;nan
39209;BME280;24929;51.982;4.664;2022-07-29T08:45:47;75341.88;;;-143.36;nan
39209;BME280;24929;51.982;4.664;2022-07-29T08:48:14;75325.84;;;-143.36;nan
39209;BME280;24929;51.982;4.664;2022-07-29T08:50:41;75309.78;;;-143.36;nan
39209;BME280;24929;51.982;4.664;2022-07-29T08:53:10;75179.41;;;-143.36;nan
39209;BME280;24929;51.982;4.664;2022-07-29T08:55:39;75171.38;;;-143.36;nan
39209;BME280;24929;51.982;4.664;2022-07-29T08:58:06;75299.75;;;-143.36;nan
39209;BME280;24929;51.982;4.664;2022-07-29T09:00:32;75301.78;;;-143.36;nan
39209;BME280;24929;51.982;4.664;2022-07-29T09:03:00;75253.63;;;-143.36;nan
39209;BME280;24929;51.982;4.664;2022-07-29T09:05:26;75305.78;;;-143.36;nan
39209;BME280;24929;51.982;4.664;2022-07-29T09:07:53;75295.75;;;-143.36;nan
39209;BME280;24929;51.982;4.664;2022-07-29T09:10:18;75339.88;;;-143.36;nan
39209;BME280;24929;51.982;4.664;2022-07-29T09:12:44;75327.84;;;-143.36;nan
39209;BME280;24929;51.982;4.664;2022-07-29T09:15:09;75343.91;;;-143.36;nan
39209;BME280;24929;51.982;4.664;2022-07-29T09:17:46;75293.75;;;-143.36;nan
39209;BME280;24929;51.982;4.664;2022-07-29T09:20:14;75416.13;;;-143.36;nan
39209;BME280;24929;51.982;4.664;2022-07-29T09:22:40;75412.09;;;-143.36;nan
39209;BME280;24929;51.982;4.664;2022-07-29T09:25:06;75448.22;;;-143.36;nan
39209;BME280;24929;51.982;4.664;2022-07-29T09:27:31;75466.28;;;-143.36;nan
39209;BME280;24929;51.982;4.664;2022-07-29T09:30:04;75392.03;;;-143.36;nan
39209;BME280;24929;51.982;4.664;2022-07-29T09:32:31;75408.09;;;-143.36;nan
39209;BME280;24929;51.982;4.664;2022-07-29T09:35:17;75400.06;;;-143.36;nan
39209;BME280;24929;51.982;4.664;2022-07-29T09:37:43;75371.97;;;-143.36;nan
39209;BME280;24929;51.982;4.664;2022-07-29T09:40:17;75301.78;;;-143.36;nan
39209;BME280;24929;51.982;4.664;2022-07-29T09:42:43;75331.84;;;-143.36;nan
39209;BME280;24929;51.982;4.664;2022-07-29T09:45:09;75347.91;;;-143.36;nan
39209;BME280;24929;51.982;4.664;2022-07-29T09:47:47;75307.78;;;-143.36;nan
39209;BME280;24929;51.982;4.664;2022-07-29T09:50:15;75349.91;;;-143.36;nan
39209;BME280;24929;51.982;4.664;2022-07-29T09:52:47;75281.72;;;-143.36;nan
39209;BME280;24929;51.982;4.664;2022-07-29T09:55:13;75331.84;;;-143.36;nan
39209;BME280;24929;51.982;4.664;2022-07-29T09:57:39;75353.94;;;-143.36;nan
39209;BME280;24929;51.982;4.664;2022-07-29T10:00:10;75361.94;;;-143.36;nan
39209;BME280;24929;51.982;4.664;2022-07-29T10:02:38;75315.81;;;-143.36;nan
39209;BME280;24929;51.982;4.664;2022-07-29T10:05:06;75295.75;;;-143.36;nan
39209;BME280;24929;51.982;4.664;2022-07-29T10:07:44;75249.59;;;-143.36;nan
39209;BME280;24929;51.982;4.664;2022-07-29T10:10:10;75335.88;;;-143.36;nan
39209;BME280;24929;51.982;4.664;2022-07-29T10:12:52;75273.69;;;-143.36;nan
39209;BME280;24929;51.982;4.664;2022-07-29T10:15:17;75297.75;;;-143.36;nan
39209;BME280;24929;51.982;4.664;2022-07-29T10:17:44;75305.78;;;-143.36;nan
39209;BME280;24929;51.982;4.664;2022-07-29T10:20:10;75315.81;;;-143.36;nan
39209;BME280;24929;51.982;4.664;2022-07-29T10:22:36;75281.72;;;-143.36;nan
39209;BME280;24929;51.982;4.664;2022-07-29T10:25:02;75299.75;;;-143.36;nan
39209;BME280;24929;51.982;4.664;2022-07-29T10:27:28;75335.88;;;-143.36;nan
39209;BME280;24929;51.982;4.664;2022-07-29T10:29:54;75315.81;;;-143.36;nan
39209;BME280;24929;51.982;4.664;2022-07-29T10:41:01;75261.66;;;-143.36;nan
39209;BME280;24929;51.982;4.664;2022-07-29T10:43:48;75213.50;;;-143.36;nan
39209;BME280;24929;51.982;4.664;2022-07-29T10:46:15;75215.50;;;-143.36;nan
39209;BME280;24929;51.982;4.664;2022-07-29T10:57:27;75093.13;;;-143.36;nan
39209;BME280;24929;51.982;4.664;2022-07-29T11:05:14;75163.34;;;-143.36;nan
39209;BME280;24929;51.982;4.664;2022-07-29T11:08:18;75111.19;;;-143.36;nan
39209;BME280;24929;51.982;4.664;2022-07-29T11:13:44;75083.09;;;-143.36;nan
39209;BME280;24929;51.982;4.664;2022-07-29T11:16:17;75079.09;;;-143.36;nan
39209;BME280;24929;51.982;4.664;2022-07-29T11:19:20;75026.94;;;-143.36;nan
39209;BME280;24929;51.982;4.664;2022-07-29T11:21:45;75105.19;;;-143.36;nan
39209;BME280;24929;51.982;4.664;2022-07-29T11:24:17;75067.06;;;-143.36;nan
39209;BME280;24929;51.982;4.664;2022-07-29T11:26:44;75125.22;;;-143.36;nan
39209;BME280;24929;51.982;4.664;2022-07-29T11:29:19;75059.03;;;-143.36;nan
39209;BME280;24929;51.982;4.664;2022-07-29T11:31:50;75077.09;;;-143.36;nan
39209;BME280;24929;51.982;4.664;2022-07-29T11:34:21;75047.00;;;-143.36;nan
39209;BME280;24929;51.982;4.664;2022-07-29T11:39:35;75055.03;;;-143.36;nan
39209;BME280;24929;51.982;4.664;2022-07-29T11:45:00;74924.63;;;-143.36;nan
39209;BME280;24929;51.982;4.664;2022-07-29T11:47:29;74948.72;;;-143.36;nan
39209;BME280;24929;51.982;4.664;2022-07-29T11:49:56;75008.88;;;-143.36;nan
39209;BME280;24929;51.982;4.664;2022-07-29T11:52:23;74996.84;;;-143.36;nan
39209;BME280;24929;51.982;4.664;2022-07-29T11:54:50;74944.69;;;-143.36;nan
39209;BME280;24929;51.982;4.664;2022-07-29T11:57:19;74994.84;;;-143.36;nan
39209;BME280;24929;51.982;4.664;2022-07-29T11:59:46;74944.69;;;-143.36;nan
39209;BME280;24929;51.982;4.664;2022-07-29T12:02:13;74934.66;;;-143.36;nan
39209;BME280;24929;51.982;4.664;2022-07-29T12:04:51;74892.53;;;-143.36;nan
39209;BME280;24929;51.982;4.664;2022-07-29T12:07:16;74958.75;;;-143.36;nan
39209;BME280;24929;51.982;4.664;2022-07-29T12:09:52;74876.50;;;-143.36;nan
39209;BME280;24929;51.982;4.664;2022-07-29T12:12:18;74918.63;;;-143.36;nan
39209;BME280;24929;51.982;4.664;2022-07-29T12:14:44;74976.78;;;-143.36;nan
39209;BME280;24929;51.982;4.664;2022-07-29T12:17:33;74896.56;;;-143.36;nan
39209;BME280;24929;51.982;4.664;2022-07-29T12:20:03;74910.59;;;-143.36;nan
39209;BME280;24929;51.982;4.664;2022-07-29T12:22:31;74884.53;;;-143.36;nan
39209;BME280;24929;51.982;4.664;2022-07-29T12:25:02;74908.59;;;-143.36;nan
39209;BME280;24929;51.982;4.664;2022-07-29T12:27:28;74914.59;;;-143.36;nan
39209;BME280;24929;51.982;4.664;2022-07-29T12:29:57;74834.38;;;-143.36;nan
39209;BME280;24929;51.982;4.664;2022-07-29T12:32:31;74874.50;;;-143.36;nan
39209;BME280;24929;51.982;4.664;2022-07-29T12:34:56;74946.69;;;-143.36;nan
39209;BME280;24929;51.982;4.664;2022-07-29T12:37:22;74960.75;;;-143.36;nan
39209;BME280;24929;51.982;4.664;2022-07-29T12:39:49;74830.38;;;-143.36;nan
39209;BME280;24929;51.982;4.664;2022-07-29T12:42:15;74854.44;;;-143.36;nan
39209;BME280;24929;51.982;4.664;2022-07-29T12:44:49;74844.41;;;-143.36;nan
39209;BME280;24929;51.982;4.664;2022-07-29T12:47:16;74872.47;;;-143.36;nan
39209;BME280;24929;51.982;4.664;2022-07-29T12:49:43;74850.41;;;-143.36;nan
39209;BME280;24929;51.982;4.664;2022-07-29T12:52:30;74782.22;;;-143.36;nan
39209;BME280;24929;51.982;4.664;2022-07-29T12:54:56;74728.06;;;-143.36;nan
39209;BME280;24929;51.982;4.664;2022-07-29T12:57:22;74732.06;;;-143.36;nan
39209;BME280;24929;51.982;4.664;2022-07-29T13:00:10;74695.97;;;-143.36;nan
39209;BME280;24929;51.982;4.664;2022-07-29T13:02:37;74706.00;;;-143.36;nan
39209;BME280;24929;51.982;4.664;2022-07-29T13:05:05;74708.00;;;-143.36;nan
39209;BME280;24929;51.982;4.664;2022-07-29T13:07:32;74659.88;;;-143.36;nan
39209;BME280;24929;51.982;4.664;2022-07-29T13:10:14;74637.81;;;-143.36;nan
39209;BME280;24929;51.982;4.664;2022-07-29T13:15:31;74689.94;;;-143.36;nan
39209;BME280;24929;51.982;4.664;2022-07-29T13:17:57;74776.19;;;-143.36;nan
39209;BME280;24929;51.982;4.664;2022-07-29T13:20:27;74633.78;;;-143.36;nan
39209;BME280;24929;51.982;4.664;2022-07-29T13:22:54;74593.69;;;-143.36;nan
39209;BME280;24929;51.982;4.664;2022-07-29T13:25:31;74609.72;;;-143.36;nan
39209;BME280;24929;51.982;4.664;2022-07-29T13:27:58;74693.97;;;-143.36;nan
39209;BME280;24929;51.982;4.664;2022-07-29T13:30:24;74764.16;;;-143.36;nan
39209;BME280;24929;51.982;4.664;2022-07-29T13:32:51;74683.94;;;-143.36;nan
39209;BME280;24929;51.982;4.664;2022-07-29T13:35:17;74695.97;;;-143.36;nan
39209;BME280;24929;51.982;4.664;2022-07-29T13:37:43;74702.00;;;-143.36;nan
39209;BME280;24929;51.982;4.664;2022-07-29T13:40:10;74645.81;;;-143.36;nan
39209;BME280;24929;51.982;4.664;2022-07-29T13:42:36;74695.97;;;-143.36;nan
39209;BME280;24929;51.982;4.664;2022-07-29T13:45:03;74685.94;;;-143.36;nan
39209;BME280;24929;51.982;4.664;2022-07-29T13:47:29;74702.00;;;-143.36;nan
39209;BME280;24929;51.982;4.664;2022-07-29T13:49:55;74683.94;;;-143.36;nan